Terminal Aerodrome Forecast
Issued by NWS

Home | Current Version | Previous Version | Text Only | Print | Product List | Glossary On
Versions: 1 2 3 4 5 6 7 8 9 10 11 12 13 14 15 16 17 18 19 20 21 22
000
FTUS41 KOKX 232339
TAFHPN
TAF
KHPN 232339Z 2400/2424 VRB03KT P6SM SKC
     FM241300 25007KT P6SM SKC
     FM241600 23010G18KT P6SM FEW250
     FM242200 21009KT P6SM FEW060 SCT250
      AMD NOT SKED=

USA.gov is the U.S. government's official web portal to all federal, state and local government web resources and services.